sensor_id;sensor_type;location;lat;lon;timestamp;pressure;altitude;pressure_sealevel;temperature;humidity
50250;BME280;36133;42.522;27.456;2023-04-06T00:01:27;100637.75;;;10.67;55.16
50250;BME280;36133;42.522;27.456;2023-04-06T00:03:52;100673.25;;;10.85;55.21
50250;BME280;36133;42.522;27.456;2023-04-06T00:06:18;100848.03;;;11.87;55.16
50250;BME280;36133;42.522;27.456;2023-04-06T00:08:43;100693.09;;;10.93;55.43
50250;BME280;36133;42.522;27.456;2023-04-06T00:11:09;100854.66;;;11.84;56.36
50250;BME280;36133;42.522;27.456;2023-04-06T00:13:35;100789.53;;;11.64;54.91
50250;BME280;36133;42.522;27.456;2023-04-06T00:16:01;100766.41;;;11.83;54.73
50250;BME280;36133;42.522;27.456;2023-04-06T00:18:26;100716.97;;;11.10;55.23
50250;BME280;36133;42.522;27.456;2023-04-06T00:20:52;100737.59;;;10.97;56.04
50250;BME280;36133;42.522;27.456;2023-04-06T00:23:18;100861.03;;;11.62;56.39
50250;BME280;36133;42.522;27.456;2023-04-06T00:25:43;100932.84;;;12.37;55.46
50250;BME280;36133;42.522;27.456;2023-04-06T00:28:09;101051.09;;;13.15;54.97
50250;BME280;36133;42.522;27.456;2023-04-06T00:30:35;100741.50;;;11.09;55.18
50250;BME280;36133;42.522;27.456;2023-04-06T00:33:03;100984.44;;;12.99;54.69
50250;BME280;36133;42.522;27.456;2023-04-06T00:35:29;100785.91;;;11.79;53.22
50250;BME280;36133;42.522;27.456;2023-04-06T00:37:54;100740.44;;;10.74;55.41
50250;BME280;36133;42.522;27.456;2023-04-06T00:40:20;100757.19;;;10.84;54.77
50250;BME280;36133;42.522;27.456;2023-04-06T00:42:46;100531.34;;;10.11;53.41
50250;BME280;36133;42.522;27.456;2023-04-06T00:45:12;100785.56;;;11.82;53.05
50250;BME280;36133;42.522;27.456;2023-04-06T00:47:37;100654.88;;;10.96;52.77
50250;BME280;36133;42.522;27.456;2023-04-06T00:50:04;100792.28;;;11.71;52.78
50250;BME280;36133;42.522;27.456;2023-04-06T00:52:30;100950.19;;;13.19;51.56
50250;BME280;36133;42.522;27.456;2023-04-06T00:54:55;100909.88;;;13.10;51.39
50250;BME280;36133;42.522;27.456;2023-04-06T00:57:21;100537.38;;;11.34;50.32
50250;BME280;36133;42.522;27.456;2023-04-06T00:59:47;101048.53;;;14.04;50.90
50250;BME280;36133;42.522;27.456;2023-04-06T01:02:13;100855.41;;;13.33;49.60
50250;BME280;36133;42.522;27.456;2023-04-06T01:04:38;100558.47;;;10.96;51.34
50250;BME280;36133;42.522;27.456;2023-04-06T01:07:04;100989.06;;;13.61;51.49
50250;BME280;36133;42.522;27.456;2023-04-06T01:09:30;100863.88;;;12.88;50.87
50250;BME280;36133;42.522;27.456;2023-04-06T01:11:59;101055.44;;;14.00;51.41
50250;BME280;36133;42.522;27.456;2023-04-06T01:14:25;100524.19;;;10.97;50.84
50250;BME280;36133;42.522;27.456;2023-04-06T01:16:51;100719.31;;;12.27;51.24
50250;BME280;36133;42.522;27.456;2023-04-06T01:19:17;100738.75;;;12.37;51.04
50250;BME280;36133;42.522;27.456;2023-04-06T01:21:43;100709.19;;;12.42;50.92
50250;BME280;36133;42.522;27.456;2023-04-06T01:24:09;100866.16;;;13.19;51.31
50250;BME280;36133;42.522;27.456;2023-04-06T01:26:36;100798.09;;;12.67;51.21
50250;BME280;36133;42.522;27.456;2023-04-06T01:29:03;100741.81;;;12.34;51.75
50250;BME280;36133;42.522;27.456;2023-04-06T01:31:29;100513.38;;;10.33;54.32
50250;BME280;36133;42.522;27.456;2023-04-06T01:33:55;100546.97;;;10.66;53.99
50250;BME280;36133;42.522;27.456;2023-04-06T01:36:21;100536.00;;;10.53;54.10
50250;BME280;36133;42.522;27.456;2023-04-06T01:38:47;100784.81;;;12.16;53.88
50250;BME280;36133;42.522;27.456;2023-04-06T01:41:12;100706.81;;;11.98;53.05
50250;BME280;36133;42.522;27.456;2023-04-06T01:43:38;100687.91;;;12.05;52.85
50250;BME280;36133;42.522;27.456;2023-04-06T01:46:04;100670.72;;;12.53;51.06
50250;BME280;36133;42.522;27.456;2023-04-06T01:48:31;100637.28;;;12.33;51.22
50250;BME280;36133;42.522;27.456;2023-04-06T01:50:57;100686.09;;;12.12;52.71
50250;BME280;36133;42.522;27.456;2023-04-06T01:53:22;100853.16;;;12.74;52.87
50250;BME280;36133;42.522;27.456;2023-04-06T01:55:48;100598.13;;;11.38;52.77
50250;BME280;36133;42.522;27.456;2023-04-06T01:58:14;100612.94;;;11.70;52.36
50250;BME280;36133;42.522;27.456;2023-04-06T02:00:40;100581.31;;;10.94;52.98
50250;BME280;36133;42.522;27.456;2023-04-06T02:03:06;100868.75;;;13.06;53.23
50250;BME280;36133;42.522;27.456;2023-04-06T02:05:32;100700.31;;;12.20;52.21
50250;BME280;36133;42.522;27.456;2023-04-06T02:08:04;100699.28;;;11.51;53.72
50250;BME280;36133;42.522;27.456;2023-04-06T02:10:31;100610.25;;;11.00;54.40
50250;BME280;36133;42.522;27.456;2023-04-06T02:12:56;100459.72;;;9.72;55.11
50250;BME280;36133;42.522;27.456;2023-04-06T02:15:22;100630.88;;;10.50;56.19
50250;BME280;36133;42.522;27.456;2023-04-06T02:17:48;101015.41;;;13.39;54.86
50250;BME280;36133;42.522;27.456;2023-04-06T02:20:14;100918.94;;;12.68;55.03
50250;BME280;36133;42.522;27.456;2023-04-06T02:22:39;101007.97;;;13.83;54.06
50250;BME280;36133;42.522;27.456;2023-04-06T02:25:05;100941.78;;;13.36;54.04
50250;BME280;36133;42.522;27.456;2023-04-06T02:27:31;101005.50;;;13.94;53.61
50250;BME280;36133;42.522;27.456;2023-04-06T02:29:57;100951.25;;;14.07;52.20
50250;BME280;36133;42.522;27.456;2023-04-06T02:32:22;100995.28;;;14.03;53.03
50250;BME280;36133;42.522;27.456;2023-04-06T02:34:48;100989.91;;;14.10;52.55
50250;BME280;36133;42.522;27.456;2023-04-06T02:37:16;100986.34;;;14.09;51.93
50250;BME280;36133;42.522;27.456;2023-04-06T02:39:42;100931.56;;;13.86;51.24
50250;BME280;36133;42.522;27.456;2023-04-06T02:42:07;100836.25;;;12.72;52.05
50250;BME280;36133;42.522;27.456;2023-04-06T02:44:34;100968.97;;;13.49;51.79
50250;BME280;36133;42.522;27.456;2023-04-06T02:47:02;100875.69;;;12.25;53.14
50250;BME280;36133;42.522;27.456;2023-04-06T02:49:28;101005.09;;;13.00;53.43
50250;BME280;36133;42.522;27.456;2023-04-06T02:51:53;100955.88;;;12.26;53.26
50250;BME280;36133;42.522;27.456;2023-04-06T02:54:19;100994.00;;;12.95;53.14
50250;BME280;36133;42.522;27.456;2023-04-06T02:56:45;100855.88;;;11.82;52.79
50250;BME280;36133;42.522;27.456;2023-04-06T02:59:13;100940.19;;;12.00;53.02
50250;BME280;36133;42.522;27.456;2023-04-06T03:01:39;100953.28;;;12.39;52.39
50250;BME280;36133;42.522;27.456;2023-04-06T03:04:04;100870.28;;;12.25;51.88
50250;BME280;36133;42.522;27.456;2023-04-06T03:06:30;101005.53;;;13.60;50.52
50250;BME280;36133;42.522;27.456;2023-04-06T03:08:56;100972.72;;;13.48;49.19
50250;BME280;36133;42.522;27.456;2023-04-06T03:11:22;100993.63;;;12.98;50.85
50250;BME280;36133;42.522;27.456;2023-04-06T03:13:47;100958.81;;;12.74;51.00
50250;BME280;36133;42.522;27.456;2023-04-06T03:16:13;100895.59;;;12.67;50.23
50250;BME280;36133;42.522;27.456;2023-04-06T03:18:38;101017.31;;;13.39;50.37
50250;BME280;36133;42.522;27.456;2023-04-06T03:21:07;100965.72;;;13.04;50.23
50250;BME280;36133;42.522;27.456;2023-04-06T03:23:33;101006.81;;;13.08;50.65
50250;BME280;36133;42.522;27.456;2023-04-06T03:25:58;100908.31;;;12.66;50.47
50250;BME280;36133;42.522;27.456;2023-04-06T03:28:24;100940.28;;;13.05;50.02
50250;BME280;36133;42.522;27.456;2023-04-06T03:30:49;100966.09;;;12.73;50.87
50250;BME280;36133;42.522;27.456;2023-04-06T03:33:18;101012.03;;;13.65;50.38
50250;BME280;36133;42.522;27.456;2023-04-06T03:35:43;101013.81;;;13.45;50.54
50250;BME280;36133;42.522;27.456;2023-04-06T03:38:09;100927.81;;;12.83;50.03
50250;BME280;36133;42.522;27.456;2023-04-06T03:40:34;100950.81;;;13.49;49.31
50250;BME280;36133;42.522;27.456;2023-04-06T03:43:00;101008.69;;;13.29;49.89
50250;BME280;36133;42.522;27.456;2023-04-06T03:45:28;100821.28;;;12.20;49.48
50250;BME280;36133;42.522;27.456;2023-04-06T03:47:54;100886.50;;;12.74;49.05
50250;BME280;36133;42.522;27.456;2023-04-06T03:50:23;100945.41;;;12.66;49.94
50250;BME280;36133;42.522;27.456;2023-04-06T03:52:51;101022.78;;;12.96;50.33
50250;BME280;36133;42.522;27.456;2023-04-06T03:55:17;100745.44;;;11.49;49.45
50250;BME280;36133;42.522;27.456;2023-04-06T03:57:46;100539.97;;;10.36;49.10
50250;BME280;36133;42.522;27.456;2023-04-06T04:00:12;100791.69;;;12.18;48.49
50250;BME280;36133;42.522;27.456;2023-04-06T04:02:38;100732.78;;;11.92;48.04
50250;BME280;36133;42.522;27.456;2023-04-06T04:05:03;100824.38;;;12.17;48.14
50250;BME280;36133;42.522;27.456;2023-04-06T04:07:29;100740.78;;;11.79;47.76
50250;BME280;36133;42.522;27.456;2023-04-06T04:09:56;100476.03;;;10.36;47.67
50250;BME280;36133;42.522;27.456;2023-04-06T04:12:21;100456.44;;;10.49;46.22
50250;BME280;36133;42.522;27.456;2023-04-06T04:14:49;100485.47;;;10.25;46.95
50250;BME280;36133;42.522;27.456;2023-04-06T04:17:16;100656.00;;;11.44;45.85
50250;BME280;36133;42.522;27.456;2023-04-06T04:19:41;100513.75;;;11.43;44.63
50250;BME280;36133;42.522;27.456;2023-04-06T04:22:07;100499.69;;;11.26;45.03
50250;BME280;36133;42.522;27.456;2023-04-06T04:24:33;100518.50;;;11.13;44.99
50250;BME280;36133;42.522;27.456;2023-04-06T04:26:59;100826.47;;;13.12;45.27
50250;BME280;36133;42.522;27.456;2023-04-06T04:29:26;100549.13;;;11.20;45.78
50250;BME280;36133;42.522;27.456;2023-04-06T04:31:52;100547.66;;;10.75;46.72
50250;BME280;36133;42.522;27.456;2023-04-06T04:34:18;100836.75;;;12.26;47.71
50250;BME280;36133;42.522;27.456;2023-04-06T04:36:46;100652.72;;;11.77;46.78
50250;BME280;36133;42.522;27.456;2023-04-06T04:39:12;100776.88;;;12.42;47.04
50250;BME280;36133;42.522;27.456;2023-04-06T04:41:37;100766.22;;;12.69;46.33
50250;BME280;36133;42.522;27.456;2023-04-06T04:44:03;100567.41;;;11.46;46.11
50250;BME280;36133;42.522;27.456;2023-04-06T04:46:29;100768.75;;;12.77;46.09
50250;BME280;36133;42.522;27.456;2023-04-06T04:48:55;100758.25;;;12.26;47.05
50250;BME280;36133;42.522;27.456;2023-04-06T04:51:23;100533.84;;;10.84;47.45
50250;BME280;36133;42.522;27.456;2023-04-06T04:53:50;100601.38;;;11.55;46.50
50250;BME280;36133;42.522;27.456;2023-04-06T04:56:15;100790.75;;;12.05;47.63
50250;BME280;36133;42.522;27.456;2023-04-06T04:58:41;100752.69;;;11.06;49.21
50250;BME280;36133;42.522;27.456;2023-04-06T05:01:07;100631.41;;;10.60;48.80
50250;BME280;36133;42.522;27.456;2023-04-06T05:03:33;100790.34;;;11.65;48.29
50250;BME280;36133;42.522;27.456;2023-04-06T05:05:59;100504.50;;;9.88;48.58
50250;BME280;36133;42.522;27.456;2023-04-06T05:08:24;101046.91;;;13.12;49.16
50250;BME280;36133;42.522;27.456;2023-04-06T05:10:53;100732.91;;;11.63;48.83
50250;BME280;36133;42.522;27.456;2023-04-06T05:13:19;100556.94;;;10.00;49.56
50250;BME280;36133;42.522;27.456;2023-04-06T05:15:45;100444.66;;;8.66;51.04
50250;BME280;36133;42.522;27.456;2023-04-06T05:18:12;100855.06;;;12.24;49.34
50250;BME280;36133;42.522;27.456;2023-04-06T05:20:38;100826.44;;;11.93;50.14
50250;BME280;36133;42.522;27.456;2023-04-06T05:23:04;101060.84;;;13.31;50.26
50250;BME280;36133;42.522;27.456;2023-04-06T05:25:30;100808.78;;;10.89;51.87
50250;BME280;36133;42.522;27.456;2023-04-06T05:27:57;100482.59;;;10.12;49.87
50250;BME280;36133;42.522;27.456;2023-04-06T05:30:23;100913.84;;;11.58;52.16
50250;BME280;36133;42.522;27.456;2023-04-06T05:32:49;100544.19;;;9.79;50.94
50250;BME280;36133;42.522;27.456;2023-04-06T05:35:15;100499.41;;;9.34;51.29
50250;BME280;36133;42.522;27.456;2023-04-06T05:37:42;100571.44;;;9.17;52.82
50250;BME280;36133;42.522;27.456;2023-04-06T05:40:09;100531.06;;;9.32;51.95
50250;BME280;36133;42.522;27.456;2023-04-06T05:42:38;100823.19;;;11.11;51.82
50250;BME280;36133;42.522;27.456;2023-04-06T05:45:05;100406.88;;;8.60;51.58
50250;BME280;36133;42.522;27.456;2023-04-06T05:47:31;100685.09;;;10.84;50.90
50250;BME280;36133;42.522;27.456;2023-04-06T05:49:57;100802.31;;;11.56;50.35
50250;BME280;36133;42.522;27.456;2023-04-06T05:52:24;100440.84;;;9.72;49.62
50250;BME280;36133;42.522;27.456;2023-04-06T05:54:50;100475.38;;;9.98;49.42
50250;BME280;36133;42.522;27.456;2023-04-06T05:57:16;100681.28;;;11.36;49.80
50250;BME280;36133;42.522;27.456;2023-04-06T05:59:44;100456.94;;;11.08;47.50
50250;BME280;36133;42.522;27.456;2023-04-06T06:02:10;100521.38;;;10.62;48.55
50250;BME280;36133;42.522;27.456;2023-04-06T06:04:39;101034.59;;;13.10;49.88
50250;BME280;36133;42.522;27.456;2023-04-06T06:07:08;100677.00;;;11.70;48.35
50250;BME280;36133;42.522;27.456;2023-04-06T06:09:34;100517.78;;;10.55;48.68
50250;BME280;36133;42.522;27.456;2023-04-06T06:12:00;100652.97;;;11.54;48.50
50250;BME280;36133;42.522;27.456;2023-04-06T06:14:28;100495.38;;;11.66;46.30
50250;BME280;36133;42.522;27.456;2023-04-06T06:17:00;100807.97;;;14.03;46.05
50250;BME280;36133;42.522;27.456;2023-04-06T06:19:31;100455.31;;;12.84;43.56
50250;BME280;36133;42.522;27.456;2023-04-06T06:22:00;100769.09;;;14.62;43.49
50250;BME280;36133;42.522;27.456;2023-04-06T06:24:36;100719.34;;;14.68;43.58
50250;BME280;36133;42.522;27.456;2023-04-06T06:27:07;100545.53;;;13.97;43.03
50250;BME280;36133;42.522;27.456;2023-04-06T06:29:55;100724.03;;;15.75;41.99
50250;BME280;36133;42.522;27.456;2023-04-06T06:32:21;100489.84;;;13.81;41.50
50250;BME280;36133;42.522;27.456;2023-04-06T06:35:02;100492.03;;;13.19;43.45
50250;BME280;36133;42.522;27.456;2023-04-06T06:37:34;100949.94;;;15.82;43.43
50250;BME280;36133;42.522;27.456;2023-04-06T06:40:19;100669.84;;;12.46;45.78
50250;BME280;36133;42.522;27.456;2023-04-06T06:43:01;100518.81;;;11.53;45.01
50250;BME280;36133;42.522;27.456;2023-04-06T06:45:30;100521.50;;;12.28;43.57
50250;BME280;36133;42.522;27.456;2023-04-06T06:47:58;100859.81;;;14.74;44.27
50250;BME280;36133;42.522;27.456;2023-04-06T06:50:39;101036.94;;;16.08;42.26
50250;BME280;36133;42.522;27.456;2023-04-06T06:53:05;100510.78;;;11.66;44.11
50250;BME280;36133;42.522;27.456;2023-04-06T06:58:47;100902.97;;;12.73;46.85
50250;BME280;36133;42.522;27.456;2023-04-06T07:01:13;100890.06;;;13.44;45.12
50250;BME280;36133;42.522;27.456;2023-04-06T07:03:48;100514.28;;;11.04;45.76
50250;BME280;36133;42.522;27.456;2023-04-06T07:06:29;100585.31;;;12.51;44.12
50250;BME280;36133;42.522;27.456;2023-04-06T07:08:57;100540.88;;;11.56;45.06
50250;BME280;36133;42.522;27.456;2023-04-06T07:12:03;100558.81;;;11.92;45.18
50250;BME280;36133;42.522;27.456;2023-04-06T07:17:26;100563.78;;;13.30;43.45
50250;BME280;36133;42.522;27.456;2023-04-06T07:19:52;101064.25;;;17.84;40.14
50250;BME280;36133;42.522;27.456;2023-04-06T07:22:18;100679.34;;;13.97;40.84
50250;BME280;36133;42.522;27.456;2023-04-06T07:24:44;100827.94;;;17.64;36.86
50250;BME280;36133;42.522;27.456;2023-04-06T07:27:09;100593.75;;;16.52;36.05
50250;BME280;36133;42.522;27.456;2023-04-06T07:29:35;100888.25;;;18.87;34.85
50250;BME280;36133;42.522;27.456;2023-04-06T07:32:01;100878.03;;;17.21;37.24
50250;BME280;36133;42.522;27.456;2023-04-06T07:34:27;100552.00;;;14.85;37.89
50250;BME280;36133;42.522;27.456;2023-04-06T07:36:53;100937.03;;;18.37;36.18
50250;BME280;36133;42.522;27.456;2023-04-06T07:39:19;100544.00;;;17.28;33.33
50250;BME280;36133;42.522;27.456;2023-04-06T07:41:48;100871.38;;;18.90;34.25
50250;BME280;36133;42.522;27.456;2023-04-06T07:44:14;100777.13;;;17.93;34.82
50250;BME280;36133;42.522;27.456;2023-04-06T07:46:54;101004.66;;;23.26;29.42
50250;BME280;36133;42.522;27.456;2023-04-06T07:49:29;100736.84;;;17.46;34.53
50250;BME280;36133;42.522;27.456;2023-04-06T07:51:56;100864.84;;;18.68;34.27
50250;BME280;36133;42.522;27.456;2023-04-06T07:54:25;100507.22;;;18.87;30.90
50250;BME280;36133;42.522;27.456;2023-04-06T07:56:53;100558.56;;;18.68;31.64
50250;BME280;36133;42.522;27.456;2023-04-06T07:59:19;100677.94;;;17.92;33.81
50250;BME280;36133;42.522;27.456;2023-04-06T08:01:45;100592.59;;;20.45;29.99
50250;BME280;36133;42.522;27.456;2023-04-06T08:04:30;100702.44;;;24.84;24.50
50250;BME280;36133;42.522;27.456;2023-04-06T08:06:56;100868.81;;;22.14;28.58
50250;BME280;36133;42.522;27.456;2023-04-06T08:09:24;101043.03;;;19.07;34.16
50250;BME280;36133;42.522;27.456;2023-04-06T08:11:50;100547.75;;;17.69;32.64
50250;BME280;36133;42.522;27.456;2023-04-06T08:14:16;100525.97;;;19.28;29.91
50250;BME280;36133;42.522;27.456;2023-04-06T08:16:48;100614.78;;;21.73;27.49
50250;BME280;36133;42.522;27.456;2023-04-06T08:19:14;100634.31;;;26.45;22.53
50250;BME280;36133;42.522;27.456;2023-04-06T08:22:03;100597.03;;;22.38;25.84
50250;BME280;36133;42.522;27.456;2023-04-06T08:24:28;101023.81;;;24.73;26.64
50250;BME280;36133;42.522;27.456;2023-04-06T08:26:57;100755.19;;;25.48;24.36
50250;BME280;36133;42.522;27.456;2023-04-06T08:29:26;100643.53;;;24.30;24.08
50250;BME280;36133;42.522;27.456;2023-04-06T08:31:52;100535.25;;;21.24;26.46
50250;BME280;36133;42.522;27.456;2023-04-06T08:34:18;100708.38;;;21.67;27.54
50250;BME280;36133;42.522;27.456;2023-04-06T08:36:46;100849.72;;;23.61;26.14
50250;BME280;36133;42.522;27.456;2023-04-06T08:39:21;100875.94;;;21.01;29.06
50250;BME280;36133;42.522;27.456;2023-04-06T08:42:01;100481.72;;;17.72;30.60
50250;BME280;36133;42.522;27.456;2023-04-06T08:44:29;100554.69;;;19.59;28.51
50250;BME280;36133;42.522;27.456;2023-04-06T08:46:59;100993.06;;;24.24;26.18
50250;BME280;36133;42.522;27.456;2023-04-06T08:49:24;100817.09;;;27.97;21.50
50250;BME280;36133;42.522;27.456;2023-04-06T08:51:51;100638.59;;;28.76;19.27
50250;BME280;36133;42.522;27.456;2023-04-06T08:54:17;100510.25;;;19.74;27.10
50250;BME280;36133;42.522;27.456;2023-04-06T08:56:43;100744.63;;;23.17;25.49
50250;BME280;36133;42.522;27.456;2023-04-06T08:59:09;100751.88;;;24.71;23.86
50250;BME280;36133;42.522;27.456;2023-04-06T09:01:39;100924.53;;;22.59;26.71
50250;BME280;36133;42.522;27.456;2023-04-06T09:04:08;100679.09;;;20.74;27.70
50250;BME280;36133;42.522;27.456;2023-04-06T09:06:36;100856.69;;;23.79;24.68
50250;BME280;36133;42.522;27.456;2023-04-06T09:09:02;100542.22;;;20.29;26.71
50250;BME280;36133;42.522;27.456;2023-04-06T09:11:28;100677.81;;;22.27;25.40
50250;BME280;36133;42.522;27.456;2023-04-06T09:13:57;100509.78;;;18.08;28.92
50250;BME280;36133;42.522;27.456;2023-04-06T09:16:23;100505.81;;;18.84;27.79
50250;BME280;36133;42.522;27.456;2023-04-06T09:18:53;101001.75;;;21.59;28.44
50250;BME280;36133;42.522;27.456;2023-04-06T09:21:19;100991.94;;;23.20;26.83
50250;BME280;36133;42.522;27.456;2023-04-06T09:23:45;100463.47;;;19.76;26.87
50250;BME280;36133;42.522;27.456;2023-04-06T09:26:17;100490.88;;;21.32;24.98
50250;BME280;36133;42.522;27.456;2023-04-06T09:28:55;100972.81;;;22.44;27.12
50250;BME280;36133;42.522;27.456;2023-04-06T09:31:31;100502.72;;;21.38;25.77
50250;BME280;36133;42.522;27.456;2023-04-06T09:36:31;100469.78;;;18.59;28.41
50250;BME280;36133;42.522;27.456;2023-04-06T09:39:05;100545.91;;;17.98;29.63
50250;BME280;36133;42.522;27.456;2023-04-06T09:41:36;100468.53;;;16.87;30.64
50250;BME280;36133;42.522;27.456;2023-04-06T09:44:03;100976.41;;;20.11;30.72
50250;BME280;36133;42.522;27.456;2023-04-06T09:46:35;100568.44;;;18.57;29.59
50250;BME280;36133;42.522;27.456;2023-04-06T09:49:04;100652.19;;;19.60;29.08
50250;BME280;36133;42.522;27.456;2023-04-06T09:51:46;100401.78;;;19.35;27.05
50250;BME280;36133;42.522;27.456;2023-04-06T09:54:24;100649.88;;;18.67;30.10
50250;BME280;36133;42.522;27.456;2023-04-06T10:02:59;100585.44;;;17.49;31.47
50250;BME280;36133;42.522;27.456;2023-04-06T10:08:09;100800.91;;;20.95;29.64
50250;BME280;36133;42.522;27.456;2023-04-06T10:10:38;100674.00;;;21.59;26.93
50250;BME280;36133;42.522;27.456;2023-04-06T10:13:07;100957.25;;;24.95;25.17
50250;BME280;36133;42.522;27.456;2023-04-06T10:18:23;100772.44;;;28.31;21.48
50250;BME280;36133;42.522;27.456;2023-04-06T10:20:57;100924.94;;;34.00;17.23
50250;BME280;36133;42.522;27.456;2023-04-06T10:23:45;100926.03;;;28.78;21.12
50250;BME280;36133;42.522;27.456;2023-04-06T10:26:31;100440.22;;;28.05;18.96
50250;BME280;36133;42.522;27.456;2023-04-06T10:29:03;100540.09;;;30.59;17.61
50250;BME280;36133;42.522;27.456;2023-04-06T10:31:32;100619.28;;;32.44;17.23
50250;BME280;36133;42.522;27.456;2023-04-06T10:34:03;100486.03;;;28.29;20.21
50250;BME280;36133;42.522;27.456;2023-04-06T10:36:38;100368.38;;;24.06;23.16
50250;BME280;36133;42.522;27.456;2023-04-06T10:39:39;100631.53;;;21.77;26.20
50250;BME280;36133;42.522;27.456;2023-04-06T10:44:52;100914.72;;;24.30;26.29
50250;BME280;36133;42.522;27.456;2023-04-06T10:47:43;100394.03;;;19.48;27.16
50250;BME280;36133;42.522;27.456;2023-04-06T10:50:16;100369.25;;;21.37;25.65
50250;BME280;36133;42.522;27.456;2023-04-06T10:53:01;100470.00;;;25.46;21.71
50250;BME280;36133;42.522;27.456;2023-04-06T10:55:28;100675.13;;;26.06;21.18
50250;BME280;36133;42.522;27.456;2023-04-06T10:57:57;100624.06;;;22.57;25.19
50250;BME280;36133;42.522;27.456;2023-04-06T11:00:26;100392.03;;;16.29;31.47
50250;BME280;36133;42.522;27.456;2023-04-06T11:02:59;100437.25;;;20.34;26.66
50250;BME280;36133;42.522;27.456;2023-04-06T11:05:30;100457.84;;;22.22;24.50
50250;BME280;36133;42.522;27.456;2023-04-06T11:10:46;100447.31;;;29.59;18.02
50250;BME280;36133;42.522;27.456;2023-04-06T11:13:12;100896.56;;;27.45;20.61
50250;BME280;36133;42.522;27.456;2023-04-06T11:15:40;100717.03;;;25.89;21.61
50250;BME280;36133;42.522;27.456;2023-04-06T11:18:06;100403.31;;;23.66;22.52
50250;BME280;36133;42.522;27.456;2023-04-06T11:20:34;100715.16;;;28.96;19.84
50250;BME280;36133;42.522;27.456;2023-04-06T11:23:00;100390.81;;;22.94;22.79
50250;BME280;36133;42.522;27.456;2023-04-06T11:25:27;100337.97;;;22.36;23.53
50250;BME280;36133;42.522;27.456;2023-04-06T11:27:53;100865.47;;;27.72;21.24
50250;BME280;36133;42.522;27.456;2023-04-06T11:30:19;100663.47;;;27.23;20.32
50250;BME280;36133;42.522;27.456;2023-04-06T11:32:45;100796.75;;;25.82;22.71
50250;BME280;36133;42.522;27.456;2023-04-06T11:35:25;100481.78;;;26.47;19.80
50250;BME280;36133;42.522;27.456;2023-04-06T11:37:50;100535.31;;;23.37;22.96
50250;BME280;36133;42.522;27.456;2023-04-06T11:40:22;100579.50;;;22.60;23.65
50250;BME280;36133;42.522;27.456;2023-04-06T11:42:55;100280.28;;;20.11;24.94
50250;BME280;36133;42.522;27.456;2023-04-06T11:45:22;100532.84;;;23.21;23.47
50250;BME280;36133;42.522;27.456;2023-04-06T11:47:58;100519.28;;;21.48;25.33
50250;BME280;36133;42.522;27.456;2023-04-06T11:50:24;100665.34;;;22.62;24.12
50250;BME280;36133;42.522;27.456;2023-04-06T11:53:00;100675.38;;;24.81;22.43
50250;BME280;36133;42.522;27.456;2023-04-06T11:55:36;100323.13;;;18.53;26.06
50250;BME280;36133;42.522;27.456;2023-04-06T11:58:06;100645.78;;;25.76;21.83
50250;BME280;36133;42.522;27.456;2023-04-06T12:00:32;100451.25;;;27.36;19.07
50250;BME280;36133;42.522;27.456;2023-04-06T12:03:06;100680.44;;;31.38;16.15
50250;BME280;36133;42.522;27.456;2023-04-06T12:05:34;100839.59;;;29.90;18.14
50250;BME280;36133;42.522;27.456;2023-04-06T12:08:00;100557.22;;;26.10;19.27
50250;BME280;36133;42.522;27.456;2023-04-06T12:10:26;100541.38;;;21.31;24.04
50250;BME280;36133;42.522;27.456;2023-04-06T12:13:00;100864.66;;;22.39;24.82
50250;BME280;36133;42.522;27.456;2023-04-06T12:15:26;100352.59;;;20.10;24.10
50250;BME280;36133;42.522;27.456;2023-04-06T12:17:52;100668.44;;;22.70;24.01
50250;BME280;36133;42.522;27.456;2023-04-06T12:20:21;100666.22;;;27.61;20.52
50250;BME280;36133;42.522;27.456;2023-04-06T12:23:01;100834.84;;;31.59;18.12
50250;BME280;36133;42.522;27.456;2023-04-06T12:25:27;100831.81;;;27.98;20.70
50250;BME280;36133;42.522;27.456;2023-04-06T12:27:53;100419.28;;;24.68;21.40
50250;BME280;36133;42.522;27.456;2023-04-06T12:30:51;100862.53;;;24.08;24.21
50250;BME280;36133;42.522;27.456;2023-04-06T12:33:20;100408.91;;;18.97;27.64
50250;BME280;36133;42.522;27.456;2023-04-06T12:35:49;100518.00;;;19.99;27.53
50250;BME280;36133;42.522;27.456;2023-04-06T12:40:50;100822.72;;;26.83;21.82
50250;BME280;36133;42.522;27.456;2023-04-06T12:43:16;100419.84;;;26.43;20.50
50250;BME280;36133;42.522;27.456;2023-04-06T12:45:47;100377.59;;;26.18;22.17
50250;BME280;36133;42.522;27.456;2023-04-06T12:48:13;100358.53;;;26.17;22.25
50250;BME280;36133;42.522;27.456;2023-04-06T12:50:39;100375.72;;;27.71;21.01
50250;BME280;36133;42.522;27.456;2023-04-06T12:53:07;100425.75;;;27.06;22.04
50250;BME280;36133;42.522;27.456;2023-04-06T12:55:33;100732.63;;;27.14;23.59
50250;BME280;36133;42.522;27.456;2023-04-06T12:57:59;100420.53;;;24.86;24.76
50250;BME280;36133;42.522;27.456;2023-04-06T13:00:25;100674.16;;;25.52;25.37
50250;BME280;36133;42.522;27.456;2023-04-06T13:02:51;100307.59;;;20.65;27.86
50250;BME280;36133;42.522;27.456;2023-04-06T13:05:24;100305.53;;;17.81;31.65
50250;BME280;36133;42.522;27.456;2023-04-06T13:07:50;100326.44;;;18.21;32.11
50250;BME280;36133;42.522;27.456;2023-04-06T13:10:18;100582.59;;;19.11;33.35
50250;BME280;36133;42.522;27.456;2023-04-06T13:12:51;100468.19;;;17.42;35.42
50250;BME280;36133;42.522;27.456;2023-04-06T13:15:16;100591.13;;;20.59;33.12